sensor_id;sensor_type;location;lat;lon;timestamp;pressure;altitude;pressure_sealevel;temperature;humidity
68656;BME280;55638;51.122;13.606;2023-02-11T00:01:32;101791.47;;;0.34;56.96
68656;BME280;55638;51.122;13.606;2023-02-11T00:03:04;101786.16;;;0.34;56.69
68656;BME280;55638;51.122;13.606;2023-02-11T00:04:36;101784.31;;;0.36;56.71
68656;BME280;55638;51.122;13.606;2023-02-11T00:06:09;101784.31;;;0.37;56.82
68656;BME280;55638;51.122;13.606;2023-02-11T00:07:42;101786.06;;;0.38;56.94
68656;BME280;55638;51.122;13.606;2023-02-11T00:09:14;101783.41;;;0.38;56.82
68656;BME280;55638;51.122;13.606;2023-02-11T00:10:50;101786.06;;;0.38;57.05
68656;BME280;55638;51.122;13.606;2023-02-11T00:12:22;101788.66;;;0.42;56.93
68656;BME280;55638;51.122;13.606;2023-02-11T00:13:58;101781.59;;;0.42;56.99
68656;BME280;55638;51.122;13.606;2023-02-11T00:15:30;101791.28;;;0.46;57.06
68656;BME280;55638;51.122;13.606;2023-02-11T00:17:02;101796.56;;;0.46;57.13
68656;BME280;55638;51.122;13.606;2023-02-11T00:18:34;101792.09;;;0.48;57.13
68656;BME280;55638;51.122;13.606;2023-02-11T00:20:07;101783.25;;;0.49;57.08
68656;BME280;55638;51.122;13.606;2023-02-11T00:21:39;101782.31;;;0.52;57.03
68656;BME280;55638;51.122;13.606;2023-02-11T00:23:11;101770.81;;;0.51;56.93
68656;BME280;55638;51.122;13.606;2023-02-11T00:24:43;101770.78;;;0.54;57.18
68656;BME280;55638;51.122;13.606;2023-02-11T00:26:26;101766.34;;;0.55;57.10
68656;BME280;55638;51.122;13.606;2023-02-11T00:27:59;101767.19;;;0.57;57.12
68656;BME280;55638;51.122;13.606;2023-02-11T00:29:30;101771.59;;;0.59;57.10
68656;BME280;55638;51.122;13.606;2023-02-11T00:31:02;101764.47;;;0.61;57.24
68656;BME280;55638;51.122;13.606;2023-02-11T00:32:34;101756.44;;;0.65;57.26
68656;BME280;55638;51.122;13.606;2023-02-11T00:34:06;101760.88;;;0.66;57.01
68656;BME280;55638;51.122;13.606;2023-02-11T00:35:38;101759.06;;;0.68;56.96
68656;BME280;55638;51.122;13.606;2023-02-11T00:37:11;101751.03;;;0.71;57.08
68656;BME280;55638;51.122;13.606;2023-02-11T00:38:47;101755.44;;;0.72;56.93
68656;BME280;55638;51.122;13.606;2023-02-11T00:40:20;101749.19;;;0.74;56.90
68656;BME280;55638;51.122;13.606;2023-02-11T00:41:52;101745.66;;;0.75;57.05
68656;BME280;55638;51.122;13.606;2023-02-11T00:43:24;101751.81;;;0.77;57.00
68656;BME280;55638;51.122;13.606;2023-02-11T00:44:56;101736.75;;;0.78;56.86
68656;BME280;55638;51.122;13.606;2023-02-11T00:46:28;101735.81;;;0.80;57.08
68656;BME280;55638;51.122;13.606;2023-02-11T00:48:00;101726.97;;;0.80;56.86
68656;BME280;55638;51.122;13.606;2023-02-11T00:49:32;101722.59;;;0.79;56.86
68656;BME280;55638;51.122;13.606;2023-02-11T00:51:04;101734.03;;;0.81;56.95
68656;BME280;55638;51.122;13.606;2023-02-11T00:52:35;101716.31;;;0.81;56.93
68656;BME280;55638;51.122;13.606;2023-02-11T00:54:07;101709.25;;;0.82;57.08
68656;BME280;55638;51.122;13.606;2023-02-11T00:55:39;101717.19;;;0.83;56.94
68656;BME280;55638;51.122;13.606;2023-02-11T00:57:11;101707.44;;;0.84;57.18
68656;BME280;55638;51.122;13.606;2023-02-11T00:58:43;101696.75;;;0.87;57.14
68656;BME280;55638;51.122;13.606;2023-02-11T01:00:15;101695.88;;;0.86;57.20
68656;BME280;55638;51.122;13.606;2023-02-11T01:01:48;101687.00;;;0.88;57.14
68656;BME280;55638;51.122;13.606;2023-02-11T01:03:20;101690.53;;;0.90;56.93
68656;BME280;55638;51.122;13.606;2023-02-11T01:04:52;101690.53;;;0.88;56.93
68656;BME280;55638;51.122;13.606;2023-02-11T01:06:23;101691.38;;;0.90;56.88
68656;BME280;55638;51.122;13.606;2023-02-11T01:07:56;101690.47;;;0.91;57.00
68656;BME280;55638;51.122;13.606;2023-02-11T01:09:28;101695.75;;;0.94;56.88
68656;BME280;55638;51.122;13.606;2023-02-11T01:11:02;101698.47;;;0.93;56.97
68656;BME280;55638;51.122;13.606;2023-02-11T01:12:34;101706.38;;;0.94;56.91
68656;BME280;55638;51.122;13.606;2023-02-11T01:14:07;101696.63;;;0.96;57.11
68656;BME280;55638;51.122;13.606;2023-02-11T01:15:39;101694.88;;;0.95;57.00
68656;BME280;55638;51.122;13.606;2023-02-11T01:17:11;101701.94;;;0.96;57.12
68656;BME280;55638;51.122;13.606;2023-02-11T01:18:43;101718.69;;;1.00;57.33
68656;BME280;55638;51.122;13.606;2023-02-11T01:20:21;101714.28;;;0.99;57.03
68656;BME280;55638;51.122;13.606;2023-02-11T01:21:53;101716.84;;;1.03;57.38
68656;BME280;55638;51.122;13.606;2023-02-11T01:23:25;101716.81;;;1.05;57.39
68656;BME280;55638;51.122;13.606;2023-02-11T01:24:57;101719.44;;;1.06;57.55
68656;BME280;55638;51.122;13.606;2023-02-11T01:26:29;101707.88;;;1.09;57.47
68656;BME280;55638;51.122;13.606;2023-02-11T01:28:02;101706.91;;;1.13;57.70
68656;BME280;55638;51.122;13.606;2023-02-11T01:29:34;101710.34;;;1.18;57.68
68656;BME280;55638;51.122;13.606;2023-02-11T01:31:06;101703.19;;;1.22;57.68
68656;BME280;55638;51.122;13.606;2023-02-11T01:32:38;101704.88;;;1.26;57.69
68656;BME280;55638;51.122;13.606;2023-02-11T01:34:10;101703.00;;;1.31;57.65
68656;BME280;55638;51.122;13.606;2023-02-11T01:35:42;101696.66;;;1.37;57.78
68656;BME280;55638;51.122;13.606;2023-02-11T01:37:14;101689.50;;;1.42;57.69
68656;BME280;55638;51.122;13.606;2023-02-11T01:38:46;101684.97;;;1.45;57.49
68656;BME280;55638;51.122;13.606;2023-02-11T01:40:22;101699.06;;;1.50;57.54
68656;BME280;55638;51.122;13.606;2023-02-11T01:41:54;101683.00;;;1.55;57.71
68656;BME280;55638;51.122;13.606;2023-02-11T01:43:28;101680.22;;;1.60;57.47
68656;BME280;55638;51.122;13.606;2023-02-11T01:45:44;101682.81;;;1.63;57.02
68656;BME280;55638;51.122;13.606;2023-02-11T01:47:22;101674.63;;;1.72;57.65
68656;BME280;55638;51.122;13.606;2023-02-11T01:49:01;101677.22;;;1.76;57.44
68656;BME280;55638;51.122;13.606;2023-02-11T01:50:33;101677.09;;;1.81;57.53
68656;BME280;55638;51.122;13.606;2023-02-11T01:52:11;101673.44;;;1.85;57.55
68656;BME280;55638;51.122;13.606;2023-02-11T01:53:45;101667.16;;;1.89;57.37
68656;BME280;55638;51.122;13.606;2023-02-11T01:55:37;101666.16;;;1.93;57.38
68656;BME280;55638;51.122;13.606;2023-02-11T01:57:30;101666.03;;;1.98;57.30
68656;BME280;55638;51.122;13.606;2023-02-11T01:59:07;101657.97;;;2.02;56.92
68656;BME280;55638;51.122;13.606;2023-02-11T02:00:42;101652.56;;;2.06;57.24
68656;BME280;55638;51.122;13.606;2023-02-11T02:02:16;101659.56;;;2.10;57.06
68656;BME280;55638;51.122;13.606;2023-02-11T02:03:51;101655.97;;;2.12;56.98
68656;BME280;55638;51.122;13.606;2023-02-11T02:05:39;101653.22;;;2.15;56.96
68656;BME280;55638;51.122;13.606;2023-02-11T02:07:21;101647.84;;;2.17;56.98
68656;BME280;55638;51.122;13.606;2023-02-11T02:09:07;101653.09;;;2.20;56.39
68656;BME280;55638;51.122;13.606;2023-02-11T02:10:43;101660.00;;;2.27;56.80
68656;BME280;55638;51.122;13.606;2023-02-11T02:12:16;101656.41;;;2.30;56.96
68656;BME280;55638;51.122;13.606;2023-02-11T02:13:48;101654.53;;;2.33;57.06
68656;BME280;55638;51.122;13.606;2023-02-11T02:15:22;101659.78;;;2.36;56.94
68656;BME280;55638;51.122;13.606;2023-02-11T02:16:54;101664.16;;;2.39;56.80
68656;BME280;55638;51.122;13.606;2023-02-11T02:18:40;101665.81;;;2.43;56.60
68656;BME280;55638;51.122;13.606;2023-02-11T02:22:34;101657.59;;;2.50;56.67
68656;BME280;55638;51.122;13.606;2023-02-11T02:27:36;101657.28;;;2.63;56.54
68656;BME280;55638;51.122;13.606;2023-02-11T02:33:05;101636.53;;;2.76;56.66
68656;BME280;55638;51.122;13.606;2023-02-11T02:35:03;101634.72;;;2.78;55.69
68656;BME280;55638;51.122;13.606;2023-02-11T02:36:45;101633.66;;;2.83;56.04
68656;BME280;55638;51.122;13.606;2023-02-11T02:39:50;101623.66;;;2.91;56.45
68656;BME280;55638;51.122;13.606;2023-02-11T02:41:27;101622.72;;;2.92;56.13
68656;BME280;55638;51.122;13.606;2023-02-11T02:43:00;101619.09;;;2.96;56.46
68656;BME280;55638;51.122;13.606;2023-02-11T02:44:33;101616.34;;;3.00;56.36
68656;BME280;55638;51.122;13.606;2023-02-11T02:46:24;101615.50;;;2.97;56.03
68656;BME280;55638;51.122;13.606;2023-02-11T02:47:56;101619.78;;;3.03;56.15
68656;BME280;55638;51.122;13.606;2023-02-11T02:49:28;101614.38;;;3.05;56.23
68656;BME280;55638;51.122;13.606;2023-02-11T02:51:29;101625.97;;;3.04;55.43
68656;BME280;55638;51.122;13.606;2023-02-11T02:53:25;101621.38;;;3.09;55.60
68656;BME280;55638;51.122;13.606;2023-02-11T02:57:40;101611.53;;;3.11;55.51
68656;BME280;55638;51.122;13.606;2023-02-11T02:59:40;101611.47;;;3.12;55.40
68656;BME280;55638;51.122;13.606;2023-02-11T03:01:45;101612.38;;;3.13;55.64
68656;BME280;55638;51.122;13.606;2023-02-11T03:03:45;101617.56;;;3.17;55.73
68656;BME280;55638;51.122;13.606;2023-02-11T03:05:46;101622.88;;;3.17;55.68
68656;BME280;55638;51.122;13.606;2023-02-11T03:07:38;101631.72;;;3.19;55.39
68656;BME280;55638;51.122;13.606;2023-02-11T03:09:19;101625.41;;;3.22;55.64
68656;BME280;55638;51.122;13.606;2023-02-11T03:10:54;101630.66;;;3.25;55.79
68656;BME280;55638;51.122;13.606;2023-02-11T03:12:29;101633.28;;;3.27;55.63
68656;BME280;55638;51.122;13.606;2023-02-11T03:14:04;101631.47;;;3.29;55.90
68656;BME280;55638;51.122;13.606;2023-02-11T03:15:43;101637.59;;;3.31;55.32
68656;BME280;55638;51.122;13.606;2023-02-11T03:17:15;101634.91;;;3.32;55.70
68656;BME280;55638;51.122;13.606;2023-02-11T03:18:55;101632.22;;;3.32;55.37
68656;BME280;55638;51.122;13.606;2023-02-11T03:20:32;101636.63;;;3.33;55.36
68656;BME280;55638;51.122;13.606;2023-02-11T03:22:11;101623.31;;;3.33;54.95
68656;BME280;55638;51.122;13.606;2023-02-11T03:23:55;101614.38;;;3.34;54.65
68656;BME280;55638;51.122;13.606;2023-02-11T03:25:33;101607.22;;;3.36;55.13
68656;BME280;55638;51.122;13.606;2023-02-11T03:29:32;101583.25;;;3.35;55.00
68656;BME280;55638;51.122;13.606;2023-02-11T03:31:33;101585.03;;;3.36;54.99
68656;BME280;55638;51.122;13.606;2023-02-11T03:33:24;101572.59;;;3.35;54.55
68656;BME280;55638;51.122;13.606;2023-02-11T03:34:59;101584.97;;;3.37;55.11
68656;BME280;55638;51.122;13.606;2023-02-11T03:36:39;101583.22;;;3.36;55.02
68656;BME280;55638;51.122;13.606;2023-02-11T03:38:23;101584.97;;;3.39;55.23
68656;BME280;55638;51.122;13.606;2023-02-11T03:40:01;101576.09;;;3.37;55.37
68656;BME280;55638;51.122;13.606;2023-02-11T03:41:34;101574.31;;;3.37;55.48
68656;BME280;55638;51.122;13.606;2023-02-11T03:43:30;101574.38;;;3.36;55.25
68656;BME280;55638;51.122;13.606;2023-02-11T03:45:07;101566.31;;;3.37;55.08
68656;BME280;55638;51.122;13.606;2023-02-11T03:46:42;101569.88;;;3.38;55.20
68656;BME280;55638;51.122;13.606;2023-02-11T03:52:58;101562.78;;;3.38;55.36
68656;BME280;55638;51.122;13.606;2023-02-11T03:54:31;101568.09;;;3.38;55.39
68656;BME280;55638;51.122;13.606;2023-02-11T03:56:06;101567.19;;;3.39;55.16
68656;BME280;55638;51.122;13.606;2023-02-11T03:57:39;101556.44;;;3.41;55.42
68656;BME280;55638;51.122;13.606;2023-02-11T03:59:11;101567.09;;;3.42;55.53
68656;BME280;55638;51.122;13.606;2023-02-11T04:00:43;101569.69;;;3.44;55.44
68656;BME280;55638;51.122;13.606;2023-02-11T04:02:15;101561.69;;;3.44;55.54
68656;BME280;55638;51.122;13.606;2023-02-11T04:03:47;101559.00;;;3.46;55.50
68656;BME280;55638;51.122;13.606;2023-02-11T04:05:18;101551.00;;;3.46;55.39
68656;BME280;55638;51.122;13.606;2023-02-11T04:06:50;101550.06;;;3.47;55.51
68656;BME280;55638;51.122;13.606;2023-02-11T04:08:22;101553.56;;;3.49;55.53
68656;BME280;55638;51.122;13.606;2023-02-11T04:09:54;101557.97;;;3.50;55.53
68656;BME280;55638;51.122;13.606;2023-02-11T04:11:25;101555.22;;;3.51;55.27
68656;BME280;55638;51.122;13.606;2023-02-11T04:12:57;101544.63;;;3.50;55.16
68656;BME280;55638;51.122;13.606;2023-02-11T04:14:29;101550.81;;;3.50;55.24
68656;BME280;55638;51.122;13.606;2023-02-11T04:16:01;101551.69;;;3.51;55.33
68656;BME280;55638;51.122;13.606;2023-02-11T04:17:32;101549.91;;;3.51;55.13
68656;BME280;55638;51.122;13.606;2023-02-11T04:19:04;101552.53;;;3.53;55.13
68656;BME280;55638;51.122;13.606;2023-02-11T04:20:36;101556.94;;;3.54;55.18
68656;BME280;55638;51.122;13.606;2023-02-11T04:22:08;101557.78;;;3.54;55.27
68656;BME280;55638;51.122;13.606;2023-02-11T04:23:39;101563.97;;;3.56;55.30
68656;BME280;55638;51.122;13.606;2023-02-11T04:25:11;101565.75;;;3.56;55.11
68656;BME280;55638;51.122;13.606;2023-02-11T04:26:43;101563.91;;;3.58;55.18
68656;BME280;55638;51.122;13.606;2023-02-11T04:28:15;101553.22;;;3.58;55.45
68656;BME280;55638;51.122;13.606;2023-02-11T04:29:46;101563.00;;;3.59;55.20
68656;BME280;55638;51.122;13.606;2023-02-11T04:31:18;101562.91;;;3.62;55.14
68656;BME280;55638;51.122;13.606;2023-02-11T04:32:50;101561.13;;;3.61;55.12
68656;BME280;55638;51.122;13.606;2023-02-11T04:34:22;101557.56;;;3.62;55.21
68656;BME280;55638;51.122;13.606;2023-02-11T04:35:55;101564.63;;;3.63;55.31
68656;BME280;55638;51.122;13.606;2023-02-11T04:37:27;101562.84;;;3.63;55.12
68656;BME280;55638;51.122;13.606;2023-02-11T04:38:58;101567.31;;;3.63;55.00
68656;BME280;55638;51.122;13.606;2023-02-11T04:40:30;101569.03;;;3.64;55.00
68656;BME280;55638;51.122;13.606;2023-02-11T04:42:02;101569.00;;;3.65;55.14
68656;BME280;55638;51.122;13.606;2023-02-11T04:43:34;101571.59;;;3.67;55.12
68656;BME280;55638;51.122;13.606;2023-02-11T04:45:06;101579.59;;;3.67;55.25
68656;BME280;55638;51.122;13.606;2023-02-11T04:46:38;101571.59;;;3.67;55.22
68656;BME280;55638;51.122;13.606;2023-02-11T04:48:10;101570.72;;;3.68;55.21
68656;BME280;55638;51.122;13.606;2023-02-11T04:49:42;101574.19;;;3.70;55.29
68656;BME280;55638;51.122;13.606;2023-02-11T04:51:13;101578.53;;;3.73;55.23
68656;BME280;55638;51.122;13.606;2023-02-11T04:52:45;101580.28;;;3.74;55.37
68656;BME280;55638;51.122;13.606;2023-02-11T04:54:17;101576.75;;;3.73;55.11
68656;BME280;55638;51.122;13.606;2023-02-11T04:55:49;101585.63;;;3.74;55.21
68656;BME280;55638;51.122;13.606;2023-02-11T04:57:22;101572.34;;;3.72;55.30
68656;BME280;55638;51.122;13.606;2023-02-11T04:58:53;101574.06;;;3.73;55.29
68656;BME280;55638;51.122;13.606;2023-02-11T05:00:25;101583.88;;;3.73;55.31
68656;BME280;55638;51.122;13.606;2023-02-11T05:01:57;101581.09;;;3.76;55.39
68656;BME280;55638;51.122;13.606;2023-02-11T05:03:29;101583.84;;;3.74;55.38
68656;BME280;55638;51.122;13.606;2023-02-11T05:05:01;101579.31;;;3.76;55.20
68656;BME280;55638;51.122;13.606;2023-02-11T05:06:32;101577.47;;;3.78;55.41
68656;BME280;55638;51.122;13.606;2023-02-11T05:08:05;101579.22;;;3.79;55.20
68656;BME280;55638;51.122;13.606;2023-02-11T05:09:37;101574.75;;;3.80;55.34
68656;BME280;55638;51.122;13.606;2023-02-11T05:11:15;101581.03;;;3.77;54.54
68656;BME280;55638;51.122;13.606;2023-02-11T05:12:48;101573.94;;;3.78;55.27
68656;BME280;55638;51.122;13.606;2023-02-11T05:14:20;101581.94;;;3.78;55.10
68656;BME280;55638;51.122;13.606;2023-02-11T05:15:53;101573.88;;;3.79;55.23
68656;BME280;55638;51.122;13.606;2023-02-11T05:17:25;101585.41;;;3.80;55.26
68656;BME280;55638;51.122;13.606;2023-02-11T05:18:56;101578.34;;;3.79;55.27
68656;BME280;55638;51.122;13.606;2023-02-11T05:20:29;101575.59;;;3.80;55.32
68656;BME280;55638;51.122;13.606;2023-02-11T05:22:00;101568.53;;;3.79;55.43
68656;BME280;55638;51.122;13.606;2023-02-11T05:23:34;101580.03;;;3.81;55.39
68656;BME280;55638;51.122;13.606;2023-02-11T05:25:07;101572.94;;;3.80;55.44
68656;BME280;55638;51.122;13.606;2023-02-11T05:26:39;101567.59;;;3.80;55.29
68656;BME280;55638;51.122;13.606;2023-02-11T05:28:10;101562.28;;;3.80;55.28
68656;BME280;55638;51.122;13.606;2023-02-11T05:29:42;101560.53;;;3.79;55.28
68656;BME280;55638;51.122;13.606;2023-02-11T05:31:14;101557.88;;;3.79;55.31
68656;BME280;55638;51.122;13.606;2023-02-11T05:32:47;101564.94;;;3.80;55.41
68656;BME280;55638;51.122;13.606;2023-02-11T05:34:19;101564.06;;;3.80;55.31
68656;BME280;55638;51.122;13.606;2023-02-11T05:35:50;101564.94;;;3.80;55.32
68656;BME280;55638;51.122;13.606;2023-02-11T05:37:22;101564.94;;;3.80;55.47
68656;BME280;55638;51.122;13.606;2023-02-11T05:38:54;101566.81;;;3.78;55.30
68656;BME280;55638;51.122;13.606;2023-02-11T05:40:26;101571.19;;;3.81;55.48
68656;BME280;55638;51.122;13.606;2023-02-11T05:41:58;101566.72;;;3.81;55.37
68656;BME280;55638;51.122;13.606;2023-02-11T05:43:30;101561.41;;;3.80;55.59
68656;BME280;55638;51.122;13.606;2023-02-11T05:45:02;101564.94;;;3.80;55.41
68656;BME280;55638;51.122;13.606;2023-02-11T05:46:33;101557.84;;;3.81;55.54
68656;BME280;55638;51.122;13.606;2023-02-11T05:48:05;101556.06;;;3.80;55.40
68656;BME280;55638;51.122;13.606;2023-02-11T05:49:37;101564.94;;;3.80;55.38
68656;BME280;55638;51.122;13.606;2023-02-11T05:51:09;101564.13;;;3.78;55.58
68656;BME280;55638;51.122;13.606;2023-02-11T05:52:41;101557.88;;;3.79;55.64
68656;BME280;55638;51.122;13.606;2023-02-11T05:54:13;101562.34;;;3.79;55.64
68656;BME280;55638;51.122;13.606;2023-02-11T05:55:44;101562.34;;;3.79;55.64
68656;BME280;55638;51.122;13.606;2023-02-11T05:57:16;101558.84;;;3.77;55.66
68656;BME280;55638;51.122;13.606;2023-02-11T05:58:49;101556.13;;;3.78;55.54
68656;BME280;55638;51.122;13.606;2023-02-11T06:00:21;101552.59;;;3.78;55.52
68656;BME280;55638;51.122;13.606;2023-02-11T06:01:53;101560.63;;;3.76;55.58
68656;BME280;55638;51.122;13.606;2023-02-11T06:03:25;101559.72;;;3.77;55.72
68656;BME280;55638;51.122;13.606;2023-02-11T06:04:56;101560.63;;;3.76;55.71
68656;BME280;55638;51.122;13.606;2023-02-11T06:06:28;101552.63;;;3.76;55.72
68656;BME280;55638;51.122;13.606;2023-02-11T06:08:00;101548.28;;;3.74;55.72
68656;BME280;55638;51.122;13.606;2023-02-11T06:09:32;101554.50;;;3.74;55.57
68656;BME280;55638;51.122;13.606;2023-02-11T06:11:03;101554.50;;;3.74;55.78
68656;BME280;55638;51.122;13.606;2023-02-11T06:12:36;101544.72;;;3.75;55.69
68656;BME280;55638;51.122;13.606;2023-02-11T06:14:08;101553.59;;;3.74;55.80
68656;BME280;55638;51.122;13.606;2023-02-11T06:15:41;101547.41;;;3.73;55.75
68656;BME280;55638;51.122;13.606;2023-02-11T06:17:13;101545.66;;;3.72;55.96
68656;BME280;55638;51.122;13.606;2023-02-11T06:18:46;101544.81;;;3.72;55.75
68656;BME280;55638;51.122;13.606;2023-02-11T06:20:18;101537.69;;;3.71;55.74
68656;BME280;55638;51.122;13.606;2023-02-11T06:21:50;101544.91;;;3.69;55.72
68656;BME280;55638;51.122;13.606;2023-02-11T06:23:22;101541.38;;;3.68;55.73
68656;BME280;55638;51.122;13.606;2023-02-11T06:24:54;101544.03;;;3.68;55.98
68656;BME280;55638;51.122;13.606;2023-02-11T06:26:34;101533.38;;;3.68;55.83
68656;BME280;55638;51.122;13.606;2023-02-11T06:28:05;101528.03;;;3.68;55.93
68656;BME280;55638;51.122;13.606;2023-02-11T06:29:37;101528.94;;;3.67;56.00
68656;BME280;55638;51.122;13.606;2023-02-11T06:31:09;101531.59;;;3.67;55.95
68656;BME280;55638;51.122;13.606;2023-02-11T06:32:42;101533.38;;;3.68;55.93
68656;BME280;55638;51.122;13.606;2023-02-11T06:34:16;101535.19;;;3.66;56.08
68656;BME280;55638;51.122;13.606;2023-02-11T06:35:48;101520.94;;;3.67;55.85
68656;BME280;55638;51.122;13.606;2023-02-11T06:37:20;101527.13;;;3.68;56.11
68656;BME280;55638;51.122;13.606;2023-02-11T06:38:52;101531.56;;;3.69;56.21
68656;BME280;55638;51.122;13.606;2023-02-11T06:40:24;101520.03;;;3.68;56.15
68656;BME280;55638;51.122;13.606;2023-02-11T06:41:55;101525.38;;;3.68;55.97
68656;BME280;55638;51.122;13.606;2023-02-11T06:43:27;101528.03;;;3.68;56.00
68656;BME280;55638;51.122;13.606;2023-02-11T06:44:59;101513.78;;;3.69;56.09
68656;BME280;55638;51.122;13.606;2023-02-11T06:46:31;101514.59;;;3.71;56.03
68656;BME280;55638;51.122;13.606;2023-02-11T06:48:02;101522.59;;;3.71;56.03
68656;BME280;55638;51.122;13.606;2023-02-11T06:49:34;101527.88;;;3.73;56.04
68656;BME280;55638;51.122;13.606;2023-02-11T06:51:09;101524.44;;;3.69;55.94
68656;BME280;55638;51.122;13.606;2023-02-11T06:52:41;101518.06;;;3.73;56.04
68656;BME280;55638;51.122;13.606;2023-02-11T06:54:13;101522.50;;;3.74;56.20
68656;BME280;55638;51.122;13.606;2023-02-11T06:55:45;101513.59;;;3.74;56.12
68656;BME280;55638;51.122;13.606;2023-02-11T06:57:17;101513.56;;;3.75;56.26
68656;BME280;55638;51.122;13.606;2023-02-11T06:58:53;101517.03;;;3.77;56.01
68656;BME280;55638;51.122;13.606;2023-02-11T07:00:26;101509.84;;;3.79;56.09
68656;BME280;55638;51.122;13.606;2023-02-11T07:01:59;101494.72;;;3.80;56.04
68656;BME280;55638;51.122;13.606;2023-02-11T07:03:33;101490.25;;;3.80;55.89
68656;BME280;55638;51.122;13.606;2023-02-11T07:05:07;101494.69;;;3.81;56.26
68656;BME280;55638;51.122;13.606;2023-02-11T07:06:39;101495.44;;;3.85;56.08
68656;BME280;55638;51.122;13.606;2023-02-11T07:08:11;101502.59;;;3.84;56.08
68656;BME280;55638;51.122;13.606;2023-02-11T07:09:43;101496.25;;;3.87;56.13
68656;BME280;55638;51.122;13.606;2023-02-11T07:11:18;101498.91;;;3.87;55.78
68656;BME280;55638;51.122;13.606;2023-02-11T07:12:51;101505.09;;;3.89;56.05
68656;BME280;55638;51.122;13.606;2023-02-11T07:14:23;101496.09;;;3.92;56.20
68656;BME280;55638;51.122;13.606;2023-02-11T07:15:54;101504.09;;;3.92;55.96
68656;BME280;55638;51.122;13.606;2023-02-11T07:17:26;101515.56;;;3.94;56.06
68656;BME280;55638;51.122;13.606;2023-02-11T07:18:58;101522.63;;;3.96;56.10
68656;BME280;55638;51.122;13.606;2023-02-11T07:20:30;101527.09;;;3.96;56.12
68656;BME280;55638;51.122;13.606;2023-02-11T07:22:02;101525.25;;;3.98;56.19
68656;BME280;55638;51.122;13.606;2023-02-11T07:23:34;101510.97;;;3.99;56.03
68656;BME280;55638;51.122;13.606;2023-02-11T07:25:06;101518.09;;;3.98;56.14
68656;BME280;55638;51.122;13.606;2023-02-11T07:26:38;101526.94;;;4.00;56.14
68656;BME280;55638;51.122;13.606;2023-02-11T07:28:10;101531.34;;;4.01;56.04
68656;BME280;55638;51.122;13.606;2023-02-11T07:29:42;101533.94;;;4.03;56.01
68656;BME280;55638;51.122;13.606;2023-02-11T07:31:17;101529.47;;;4.03;55.90
68656;BME280;55638;51.122;13.606;2023-02-11T07:32:49;101541.03;;;4.04;56.13
68656;BME280;55638;51.122;13.606;2023-02-11T07:34:21;101541.03;;;4.04;56.12
68656;BME280;55638;51.122;13.606;2023-02-11T07:35:53;101528.59;;;4.03;56.24
68656;BME280;55638;51.122;13.606;2023-02-11T07:37:25;101535.63;;;4.05;56.21
68656;BME280;55638;51.122;13.606;2023-02-11T07:38:57;101539.28;;;4.03;56.19
68656;BME280;55638;51.122;13.606;2023-02-11T07:40:28;101526.75;;;4.05;56.21
68656;BME280;55638;51.122;13.606;2023-02-11T07:42:02;101535.72;;;4.04;56.15
68656;BME280;55638;51.122;13.606;2023-02-11T07:43:35;101530.38;;;4.04;56.20
68656;BME280;55638;51.122;13.606;2023-02-11T07:45:08;101528.56;;;4.04;56.26
68656;BME280;55638;51.122;13.606;2023-02-11T07:46:40;101527.69;;;4.04;56.08
68656;BME280;55638;51.122;13.606;2023-02-11T07:48:15;101531.28;;;4.03;56.20
68656;BME280;55638;51.122;13.606;2023-02-11T07:49:47;101532.97;;;4.05;56.34
68656;BME280;55638;51.122;13.606;2023-02-11T07:51:24;101520.56;;;4.04;56.45
68656;BME280;55638;51.122;13.606;2023-02-11T07:52:56;101532.94;;;4.07;56.48
68656;BME280;55638;51.122;13.606;2023-02-11T07:54:28;101535.59;;;4.07;56.39
68656;BME280;55638;51.122;13.606;2023-02-11T07:56:02;101532.00;;;4.08;56.44
68656;BME280;55638;51.122;13.606;2023-02-11T07:57:34;101536.47;;;4.07;56.46
68656;BME280;55638;51.122;13.606;2023-02-11T07:59:06;101536.41;;;4.09;56.40
68656;BME280;55638;51.122;13.606;2023-02-11T08:00:38;101528.41;;;4.09;56.27
68656;BME280;55638;51.122;13.606;2023-02-11T08:02:10;101526.59;;;4.09;56.52
68656;BME280;55638;51.122;13.606;2023-02-11T08:03:42;101535.44;;;4.11;56.31
68656;BME280;55638;51.122;13.606;2023-02-11T08:05:14;101528.28;;;4.12;56.44
68656;BME280;55638;51.122;13.606;2023-02-11T08:06:45;101524.81;;;4.10;56.21
68656;BME280;55638;51.122;13.606;2023-02-11T08:08:17;101537.16;;;4.12;56.46
68656;BME280;55638;51.122;13.606;2023-02-11T08:09:49;101540.69;;;4.13;56.30
68656;BME280;55638;51.122;13.606;2023-02-11T08:11:25;101532.66;;;4.15;56.08
68656;BME280;55638;51.122;13.606;2023-02-11T08:12:57;101537.03;;;4.17;56.35
68656;BME280;55638;51.122;13.606;2023-02-11T08:14:28;101528.03;;;4.20;56.39
68656;BME280;55638;51.122;13.606;2023-02-11T08:16:00;101521.75;;;4.21;56.26
68656;BME280;55638;51.122;13.606;2023-02-11T08:17:34;101527.84;;;4.24;56.44
68656;BME280;55638;51.122;13.606;2023-02-11T08:19:09;101538.53;;;4.24;56.15
68656;BME280;55638;51.122;13.606;2023-02-11T08:20:42;101530.47;;;4.26;56.18
68656;BME280;55638;51.122;13.606;2023-02-11T08:22:14;101524.09;;;4.30;56.11
68656;BME280;55638;51.122;13.606;2023-02-11T08:23:45;101532.97;;;4.30;55.95
68656;BME280;55638;51.122;13.606;2023-02-11T08:25:17;101529.38;;;4.31;56.12
68656;BME280;55638;51.122;13.606;2023-02-11T08:26:49;101522.22;;;4.32;55.65
68656;BME280;55638;51.122;13.606;2023-02-11T08:28:21;101526.56;;;4.36;55.90
68656;BME280;55638;51.122;13.606;2023-02-11T08:29:53;101523.81;;;4.38;55.94
68656;BME280;55638;51.122;13.606;2023-02-11T08:31:28;101513.13;;;4.38;55.67
68656;BME280;55638;51.122;13.606;2023-02-11T08:33:01;101529.09;;;4.39;55.93
68656;BME280;55638;51.122;13.606;2023-02-11T08:34:32;101512.19;;;4.39;55.83